createdAt,value
2019-03-21T00:00:36.796Z,27.10
2019-03-21T00:03:05.352Z,31.37
2019-03-21T00:05:35.203Z,40.13
2019-03-21T00:08:05.010Z,31.30
2019-03-21T00:10:36.622Z,31.87
2019-03-21T00:13:11.983Z,40.83
2019-03-21T00:15:55.473Z,31.87
2019-03-21T00:18:24.052Z,35.50
2019-03-21T00:20:52.622Z,30.73
2019-03-21T00:23:21.163Z,35.40
2019-03-21T00:25:49.776Z,40.90
2019-03-21T00:28:18.336Z,39.20
2019-03-21T00:30:46.925Z,32.30
2019-03-21T00:33:15.532Z,32.27
2019-03-21T00:35:46.806Z,36.97
2019-03-21T00:38:15.374Z,37.67
2019-03-21T00:40:46.310Z,38.53
2019-03-21T00:43:14.975Z,41.93
2019-03-21T00:45:43.579Z,38.13
2019-03-21T00:48:15.143Z,37.77
2019-03-21T00:50:43.716Z,34.07
2019-03-21T00:53:12.269Z,36.03
2019-03-21T00:55:44.037Z,39.80
2019-03-21T00:58:12.630Z,33.80
2019-03-21T01:00:44.118Z,42.00
2019-03-21T01:03:13.412Z,35.37
2019-03-21T01:05:42.638Z,51.30
2019-03-21T01:08:11.128Z,36.67
2019-03-21T01:10:39.775Z,40.03
2019-03-21T01:13:08.265Z,36.50
2019-03-21T01:15:36.841Z,38.67
2019-03-21T01:18:05.476Z,48.17
2019-03-21T01:20:34.045Z,40.07
2019-03-21T01:23:02.631Z,35.37
2019-03-21T01:25:43.215Z,40.83
2019-03-21T01:28:11.800Z,37.23
2019-03-21T01:30:40.354Z,35.43
2019-03-21T01:33:08.963Z,38.90
2019-03-21T01:35:38.798Z,41.00
2019-03-21T01:38:07.386Z,37.80
2019-03-21T01:40:47.910Z,40.10
2019-03-21T01:43:16.486Z,41.50
2019-03-21T01:45:45.050Z,34.13
2019-03-21T01:48:13.663Z,35.43
2019-03-21T01:50:43.031Z,41.57
2019-03-21T01:53:11.665Z,34.83
2019-03-21T01:55:40.201Z,36.43
2019-03-21T01:58:08.780Z,32.93
2019-03-21T02:00:44.303Z,38.93
2019-03-21T02:03:12.880Z,35.50
2019-03-21T02:05:41.420Z,34.30
2019-03-21T02:08:09.920Z,38.67
2019-03-21T02:10:38.401Z,37.20
2019-03-21T02:13:06.928Z,38.07
2019-03-21T02:15:35.469Z,42.30
2019-03-21T02:18:04.179Z,45.30
2019-03-21T02:20:32.734Z,41.00
2019-03-21T02:23:01.410Z,38.73
2019-03-21T02:25:32.003Z,38.73
2019-03-21T02:28:08.654Z,36.77
2019-03-21T02:30:44.859Z,39.17
2019-03-21T02:33:33.470Z,31.97
2019-03-21T02:36:04.433Z,39.83
2019-03-21T02:38:33.123Z,37.90
2019-03-21T02:41:04.772Z,37.30
2019-03-21T02:43:33.371Z,39.60
2019-03-21T02:46:02.012Z,43.83
2019-03-21T02:48:30.582Z,41.80
2019-03-21T02:50:59.149Z,36.87
2019-03-21T02:53:27.717Z,38.80
2019-03-21T02:55:56.377Z,40.53
2019-03-21T02:58:24.916Z,37.43
2019-03-21T03:00:53.466Z,39.80
2019-03-21T03:03:22.131Z,37.53
2019-03-21T03:05:50.678Z,44.73
2019-03-21T03:08:19.314Z,34.63
2019-03-21T03:10:56.563Z,35.63
2019-03-21T03:13:25.742Z,37.77
2019-03-21T03:15:55.024Z,42.37
2019-03-21T03:18:25.731Z,36.43
2019-03-21T03:20:55.243Z,37.47
2019-03-21T03:23:23.845Z,39.93
2019-03-21T03:25:52.366Z,36.17
2019-03-21T03:28:26.952Z,37.53
2019-03-21T03:30:58.901Z,38.63
2019-03-21T03:33:28.186Z,33.00
2019-03-21T03:35:56.815Z,37.83
2019-03-21T03:38:25.467Z,36.67
2019-03-21T03:41:00.020Z,31.80
2019-03-21T03:43:28.622Z,34.60
2019-03-21T03:45:57.211Z,30.40
2019-03-21T03:48:27.242Z,34.43
2019-03-21T03:50:55.825Z,35.37
2019-03-21T03:53:24.359Z,31.50
2019-03-21T03:55:53.060Z,37.57
2019-03-21T03:58:43.103Z,31.17
2019-03-21T04:01:11.678Z,27.33
2019-03-21T04:03:40.357Z,29.20
2019-03-21T04:06:08.966Z,41.10
2019-03-21T04:08:37.609Z,35.37
2019-03-21T04:11:06.158Z,32.43
2019-03-21T04:13:34.741Z,37.33
2019-03-21T04:16:03.647Z,34.27
2019-03-21T04:18:32.324Z,31.93
2019-03-21T04:21:14.852Z,36.40
2019-03-21T04:23:43.448Z,37.87
2019-03-21T04:26:27.179Z,28.67
2019-03-21T04:28:55.775Z,28.40
2019-03-21T04:31:24.251Z,33.50
2019-03-21T04:33:55.765Z,32.13
2019-03-21T04:36:24.254Z,33.70
2019-03-21T04:38:52.801Z,37.23
2019-03-21T04:41:21.372Z,32.97
2019-03-21T04:43:49.918Z,60.83
2019-03-21T04:46:18.611Z,36.43
2019-03-21T04:48:47.088Z,38.43
2019-03-21T04:51:15.588Z,39.33
2019-03-21T04:53:44.341Z,38.33
2019-03-21T04:56:12.872Z,40.43
2019-03-21T04:58:41.420Z,41.00
2019-03-21T05:01:10.004Z,41.70
2019-03-21T05:03:38.526Z,39.50
2019-03-21T05:06:07.049Z,39.57
2019-03-21T05:08:35.605Z,41.67
2019-03-21T05:11:04.247Z,37.70
2019-03-21T05:13:32.785Z,41.53
2019-03-21T05:16:01.281Z,40.60
2019-03-21T05:18:39.611Z,43.07
2019-03-21T05:21:22.994Z,42.47
2019-03-21T05:23:51.481Z,44.67
2019-03-21T05:26:20.097Z,42.53
2019-03-21T05:28:48.566Z,42.33
2019-03-21T05:31:26.149Z,41.33
2019-03-21T05:33:54.708Z,46.00
2019-03-21T05:36:23.306Z,37.23
2019-03-21T05:38:51.847Z,43.03
2019-03-21T05:41:20.491Z,41.13
2019-03-21T05:44:01.210Z,53.93
2019-03-21T05:46:30.450Z,43.13
2019-03-21T05:48:58.940Z,39.47
2019-03-21T05:51:27.517Z,39.77
2019-03-21T05:53:55.996Z,50.90
2019-03-21T05:56:24.569Z,53.20
2019-03-21T05:58:53.129Z,40.07
2019-03-21T06:01:21.781Z,48.47
2019-03-21T06:03:53.725Z,45.17
2019-03-21T06:06:28.061Z,43.40
2019-03-21T06:08:56.591Z,44.20
2019-03-21T06:11:25.127Z,45.10
2019-03-21T06:13:53.671Z,46.30
2019-03-21T06:16:22.203Z,38.13
2019-03-21T06:18:56.454Z,39.03
2019-03-21T06:21:53.637Z,44.50
2019-03-21T06:24:34.175Z,40.30
2019-03-21T06:27:15.136Z,43.23
2019-03-21T06:29:43.777Z,45.73
2019-03-21T06:32:13.146Z,41.57
2019-03-21T06:34:41.809Z,40.27
2019-03-21T06:37:10.668Z,42.97
2019-03-21T06:39:39.142Z,51.17
2019-03-21T06:42:07.754Z,47.80
2019-03-21T06:44:36.235Z,41.63
2019-03-21T06:47:04.988Z,49.23
2019-03-21T06:49:33.518Z,51.00
2019-03-21T06:52:02.165Z,47.60
2019-03-21T06:54:30.733Z,45.10
2019-03-21T06:57:02.283Z,44.23
2019-03-21T06:59:29.770Z,39.07
2019-03-21T07:01:58.369Z,43.40
2019-03-21T07:04:26.888Z,46.50
2019-03-21T07:06:55.546Z,47.13
2019-03-21T07:09:24.066Z,48.37
2019-03-21T07:11:52.631Z,46.67
2019-03-21T07:14:21.130Z,40.40
2019-03-21T07:16:59.826Z,47.70
2019-03-21T07:19:19.926Z,50.37
2019-03-21T07:21:48.474Z,48.67
2019-03-21T07:24:16.968Z,48.40
2019-03-21T07:26:45.543Z,44.27
2019-03-21T07:29:14.104Z,43.27
2019-03-21T07:31:42.705Z,56.97
2019-03-21T07:34:11.247Z,69.83
2019-03-21T07:36:39.756Z,71.43
2019-03-21T07:39:08.279Z,62.53
2019-03-21T07:41:36.834Z,54.17
2019-03-21T07:44:05.418Z,52.17
2019-03-21T07:46:33.914Z,57.20
2019-03-21T07:49:02.398Z,58.50
2019-03-21T07:51:31.007Z,54.10
2019-03-21T07:53:59.562Z,54.03
2019-03-21T07:56:28.069Z,57.13
2019-03-21T07:59:01.091Z,56.23
2019-03-21T08:01:29.676Z,60.53
2019-03-21T08:03:58.224Z,50.17
2019-03-21T08:06:26.818Z,50.13
2019-03-21T08:08:55.335Z,54.10
2019-03-21T08:11:23.896Z,53.37
2019-03-21T08:13:52.412Z,49.23
2019-03-21T08:16:20.970Z,52.97
2019-03-21T08:18:49.491Z,54.17
2019-03-21T08:21:18.162Z,51.63
2019-03-21T08:23:46.675Z,56.57
2019-03-21T08:26:15.240Z,53.43
2019-03-21T08:28:43.744Z,51.40
2019-03-21T08:31:14.119Z,55.00
2019-03-21T08:33:42.873Z,56.23
2019-03-21T08:36:11.508Z,55.27
2019-03-21T08:38:40.047Z,55.17
2019-03-21T08:41:08.639Z,69.87
2019-03-21T08:43:37.212Z,46.10
2019-03-21T08:46:05.849Z,58.20
2019-03-21T08:48:34.419Z,48.57
2019-03-21T08:51:08.325Z,51.63
2019-03-21T08:53:33.188Z,57.33
2019-03-21T08:56:01.788Z,50.50
2019-03-21T08:58:30.354Z,50.37
2019-03-21T09:00:58.927Z,57.33
2019-03-21T09:03:27.422Z,46.90
2019-03-21T09:05:55.980Z,55.20
2019-03-21T09:08:24.513Z,41.83
2019-03-21T09:10:53.106Z,47.87
2019-03-21T09:13:21.696Z,38.17
2019-03-21T09:15:50.250Z,40.77
2019-03-21T09:18:18.770Z,34.30
2019-03-21T09:20:47.329Z,39.13
2019-03-21T09:23:15.904Z,39.87
2019-03-21T09:25:44.489Z,38.63
2019-03-21T09:28:14.340Z,35.47
2019-03-21T09:30:42.980Z,39.00
2019-03-21T09:33:11.522Z,41.50
2019-03-21T09:35:40.107Z,33.47
2019-03-21T09:38:08.681Z,37.50
2019-03-21T09:40:37.200Z,40.50
2019-03-21T09:43:05.795Z,33.53
2019-03-21T09:45:34.379Z,31.80
2019-03-21T09:48:02.943Z,32.30
2019-03-21T09:50:31.565Z,39.73
2019-03-21T09:53:00.086Z,41.70
2019-03-21T09:55:28.624Z,39.13
2019-03-21T09:57:57.200Z,32.63
2019-03-21T10:00:36.029Z,37.13
2019-03-21T10:03:05.761Z,36.83
2019-03-21T10:05:34.467Z,31.33
2019-03-21T10:08:03.126Z,43.53
2019-03-21T10:10:33.033Z,31.83
2019-03-21T10:13:01.686Z,35.10
2019-03-21T10:15:30.185Z,35.30
2019-03-21T10:17:58.709Z,33.87
2019-03-21T10:20:27.224Z,32.00
2019-03-21T10:22:55.794Z,32.67
2019-03-21T10:25:26.502Z,32.47
2019-03-21T10:27:54.529Z,32.27
2019-03-21T10:30:31.930Z,31.70
2019-03-21T10:33:00.395Z,27.80
2019-03-21T10:35:28.924Z,32.60
2019-03-21T10:37:57.581Z,27.07
2019-03-21T10:40:26.117Z,24.83
2019-03-21T10:42:54.642Z,29.60
2019-03-21T10:45:23.180Z,25.70
2019-03-21T10:47:51.754Z,26.70
2019-03-21T10:50:37.230Z,28.50
2019-03-21T10:53:06.870Z,26.40
2019-03-21T10:55:35.802Z,30.73
2019-03-21T10:58:05.331Z,28.77
2019-03-21T11:00:33.979Z,30.67
2019-03-21T11:03:02.553Z,28.53
2019-03-21T11:05:31.059Z,29.93
2019-03-21T11:07:59.609Z,26.00
2019-03-21T11:10:28.136Z,30.10
2019-03-21T11:12:56.637Z,29.80
2019-03-21T11:15:25.222Z,29.13
2019-03-21T11:17:55.195Z,29.80
2019-03-21T11:20:29.662Z,29.60
2019-03-21T11:22:58.310Z,27.73
2019-03-21T11:25:26.893Z,30.40
2019-03-21T11:27:55.447Z,37.73
2019-03-21T11:30:32.554Z,34.63
2019-03-21T11:33:01.708Z,32.70
2019-03-21T11:35:30.991Z,32.30
2019-03-21T11:37:59.675Z,30.50
2019-03-21T11:40:28.268Z,28.73
2019-03-21T11:42:57.724Z,28.20
2019-03-21T11:45:26.429Z,26.43
2019-03-21T11:47:55.021Z,28.90
2019-03-21T11:50:23.563Z,26.63
2019-03-21T11:52:52.084Z,23.77
2019-03-21T11:55:20.677Z,28.27
2019-03-21T11:57:49.326Z,32.53
2019-03-21T12:00:19.021Z,31.70
2019-03-21T12:02:47.582Z,31.17
2019-03-21T12:05:16.083Z,36.77
2019-03-21T12:07:44.587Z,34.70
2019-03-21T12:10:13.812Z,32.20
2019-03-21T12:12:42.400Z,32.20
2019-03-21T12:15:11.906Z,30.50
2019-03-21T12:17:40.498Z,36.20
2019-03-21T12:20:11.935Z,36.53
2019-03-21T12:22:40.495Z,36.50
2019-03-21T12:25:10.145Z,39.17
2019-03-21T12:27:38.810Z,36.70
2019-03-21T12:30:10.925Z,41.63
2019-03-21T12:32:39.682Z,36.00
2019-03-21T12:35:08.907Z,36.50
2019-03-21T12:37:38.657Z,45.23
2019-03-21T12:40:09.123Z,40.23
2019-03-21T12:42:37.703Z,47.80
2019-03-21T12:45:10.381Z,43.20
2019-03-21T12:47:38.937Z,37.70
2019-03-21T12:50:08.880Z,41.00
2019-03-21T12:55:07.924Z,42.40
2019-03-21T12:56:19.624Z,44.73
2019-03-21T12:57:36.488Z,36.50
2019-03-21T13:00:13.534Z,47.70
2019-03-21T13:02:43.267Z,38.47
2019-03-21T13:05:17.763Z,38.50
2019-03-21T13:07:46.272Z,39.90
2019-03-21T13:10:14.871Z,41.17
2019-03-21T13:12:43.465Z,44.43
2019-03-21T13:15:12.135Z,36.87
2019-03-21T13:17:40.722Z,49.27
2019-03-21T13:20:09.384Z,40.60
2019-03-21T13:22:37.958Z,41.60
2019-03-21T13:25:06.896Z,49.93
2019-03-21T13:27:35.450Z,37.27
2019-03-21T13:30:05.895Z,40.87
2019-03-21T13:32:34.568Z,41.77
2019-03-21T13:35:06.138Z,47.10
2019-03-21T13:37:33.872Z,47.80
2019-03-21T13:40:02.585Z,48.23
2019-03-21T13:42:31.144Z,55.23
2019-03-21T13:44:59.747Z,51.63
2019-03-21T13:47:28.244Z,56.33
2019-03-21T13:49:56.838Z,44.63
2019-03-21T13:52:25.441Z,47.70
2019-03-21T13:54:54.160Z,50.33
2019-03-21T13:57:22.740Z,45.47
2019-03-21T13:59:51.343Z,42.87
2019-03-21T14:02:19.939Z,46.47
2019-03-21T14:04:48.590Z,48.03
2019-03-21T14:07:17.158Z,53.40
2019-03-21T14:09:45.808Z,47.17
2019-03-21T14:12:14.323Z,50.67
2019-03-21T14:14:42.887Z,49.37
2019-03-21T14:17:21.584Z,50.17
2019-03-21T14:19:41.662Z,44.50
2019-03-21T14:22:10.252Z,47.73
2019-03-21T14:24:38.826Z,50.30
2019-03-21T14:27:07.657Z,47.87
2019-03-21T14:29:36.256Z,49.17
2019-03-21T14:32:04.865Z,43.93
2019-03-21T14:34:33.511Z,52.37
2019-03-21T14:37:02.108Z,50.03
2019-03-21T14:39:30.663Z,51.60
2019-03-21T14:41:59.271Z,50.37
2019-03-21T14:44:27.878Z,67.83
2019-03-21T14:46:56.523Z,44.60
2019-03-21T14:49:25.016Z,46.50
2019-03-21T14:51:53.549Z,48.07
2019-03-21T14:54:22.149Z,54.03
2019-03-21T14:56:50.721Z,67.67
2019-03-21T14:59:19.291Z,60.70
2019-03-21T15:01:47.876Z,52.63
2019-03-21T15:04:16.369Z,51.17
2019-03-21T15:06:44.891Z,52.23
2019-03-21T15:09:13.383Z,61.30
2019-03-21T15:11:43.510Z,51.93
2019-03-21T15:14:12.072Z,50.70
2019-03-21T15:16:40.614Z,46.47
2019-03-21T15:19:09.185Z,50.00
2019-03-21T15:21:40.134Z,58.90
2019-03-21T15:24:08.699Z,50.20
2019-03-21T15:26:37.309Z,58.10
2019-03-21T15:29:05.882Z,58.67
2019-03-21T15:31:34.531Z,49.03
2019-03-21T15:34:03.175Z,52.10
2019-03-21T15:36:31.901Z,54.23
2019-03-21T15:39:00.457Z,48.07
2019-03-21T15:41:29.020Z,51.00
2019-03-21T15:43:57.614Z,51.00
2019-03-21T15:46:26.204Z,49.40
2019-03-21T15:48:54.783Z,48.07
2019-03-21T15:51:23.302Z,52.10
2019-03-21T15:53:55.968Z,56.13
2019-03-21T15:56:22.242Z,50.63
2019-03-21T15:58:50.742Z,51.90
2019-03-21T16:01:19.322Z,54.17
2019-03-21T16:03:47.828Z,53.90
2019-03-21T16:06:16.449Z,48.40
2019-03-21T16:08:46.025Z,46.27
2019-03-21T16:11:14.566Z,45.80
2019-03-21T16:13:43.140Z,45.37
2019-03-21T16:16:11.798Z,45.00
2019-03-21T16:18:40.354Z,49.67
2019-03-21T16:21:09.071Z,46.63
2019-03-21T16:23:37.706Z,45.23
2019-03-21T16:26:06.284Z,47.03
2019-03-21T16:28:34.879Z,48.77
2019-03-21T16:31:03.405Z,42.40
2019-03-21T16:33:32.058Z,37.40
2019-03-21T16:36:00.622Z,42.87
2019-03-21T16:38:29.214Z,45.07
2019-03-21T16:40:57.787Z,44.60
2019-03-21T16:43:26.351Z,41.37
2019-03-21T16:45:54.932Z,51.13
2019-03-21T16:48:23.507Z,41.73
2019-03-21T16:50:52.018Z,42.00
2019-03-21T16:53:20.662Z,43.50
2019-03-21T16:55:49.235Z,48.97
2019-03-21T16:58:17.828Z,40.07
2019-03-21T17:00:46.314Z,43.87
2019-03-21T17:03:14.831Z,39.60
2019-03-21T17:05:43.354Z,42.50
2019-03-21T17:08:12.316Z,40.83
2019-03-21T17:10:40.893Z,44.53
2019-03-21T17:13:09.457Z,45.10
2019-03-21T17:15:38.031Z,45.30
2019-03-21T17:18:06.609Z,47.93
2019-03-21T17:20:35.213Z,43.90
2019-03-21T17:23:03.797Z,52.17
2019-03-21T17:25:32.353Z,50.37
2019-03-21T17:28:00.996Z,45.30
2019-03-21T17:30:29.608Z,48.37
2019-03-21T17:32:58.244Z,63.73
2019-03-21T17:35:26.822Z,43.13
2019-03-21T17:37:55.395Z,50.80
2019-03-21T17:40:24.028Z,51.63
2019-03-21T17:42:52.622Z,50.00
2019-03-21T17:45:21.240Z,49.67
2019-03-21T17:47:49.828Z,49.03
2019-03-21T17:50:19.169Z,48.20
2019-03-21T17:52:48.060Z,46.40
2019-03-21T17:55:16.694Z,39.80
2019-03-21T17:57:45.283Z,44.87
2019-03-21T18:00:23.893Z,42.73
2019-03-21T18:02:52.893Z,59.20
2019-03-21T18:05:21.890Z,98.90
2019-03-21T18:07:50.477Z,63.20
2019-03-21T18:10:30.593Z,71.57
2019-03-21T18:12:59.355Z,67.07
2019-03-21T18:15:28.692Z,54.70
2019-03-21T18:17:57.296Z,60.13
2019-03-21T18:20:25.993Z,60.93
2019-03-21T18:22:54.781Z,57.67
2019-03-21T18:25:23.408Z,60.77
2019-03-21T18:27:53.055Z,59.13
2019-03-21T18:30:21.728Z,58.87
2019-03-21T18:32:50.312Z,51.07
2019-03-21T18:35:19.312Z,52.57
2019-03-21T18:37:47.907Z,56.27
2019-03-21T18:40:16.672Z,60.37
2019-03-21T18:42:47.181Z,60.10
2019-03-21T18:45:16.066Z,56.67
2019-03-21T18:47:44.716Z,53.80
2019-03-21T18:50:15.461Z,61.30
2019-03-21T18:52:44.120Z,66.03
2019-03-21T18:55:12.872Z,65.03
2019-03-21T18:57:41.559Z,64.00
2019-03-21T19:00:20.815Z,73.43
2019-03-21T19:02:52.190Z,72.30
2019-03-21T19:05:22.286Z,68.83
2019-03-21T19:07:55.292Z,68.37
2019-03-21T19:10:26.502Z,63.67
2019-03-21T19:12:55.146Z,67.60
2019-03-21T19:15:23.918Z,64.67
2019-03-21T19:17:54.068Z,67.03
2019-03-21T19:20:22.733Z,71.77
2019-03-21T19:22:52.039Z,72.20
2019-03-21T19:25:21.048Z,71.10
2019-03-21T19:27:49.670Z,72.60
2019-03-21T19:30:19.723Z,67.57
2019-03-21T19:32:49.414Z,68.47
2019-03-21T19:35:18.549Z,62.30
2019-03-21T19:37:47.308Z,67.23
2019-03-21T19:40:20.454Z,61.47
2019-03-21T19:42:50.079Z,58.33
2019-03-21T19:45:19.508Z,65.20
2019-03-21T19:47:48.284Z,56.10
2019-03-21T19:50:22.095Z,59.27
2019-03-21T19:52:50.803Z,56.73
2019-03-21T19:55:30.130Z,68.80
2019-03-21T19:57:50.279Z,59.77
2019-03-21T20:00:21.053Z,68.83
2019-03-21T20:02:54.131Z,58.97
2019-03-21T20:05:20.468Z,57.30
2019-03-21T20:07:49.251Z,62.50
2019-03-21T20:10:21.921Z,61.83
2019-03-21T20:12:51.080Z,58.63
2019-03-21T20:15:22.808Z,54.23
2019-03-21T20:17:51.425Z,53.90
2019-03-21T20:20:20.628Z,56.70
2019-03-21T20:22:49.367Z,64.37
2019-03-21T20:25:21.142Z,59.37
2019-03-21T20:27:49.841Z,59.57
2019-03-21T20:30:20.910Z,59.17
2019-03-21T20:32:49.626Z,57.63
2019-03-21T20:35:18.417Z,56.23
2019-03-21T20:37:47.102Z,60.83
2019-03-21T20:40:19.871Z,60.83
2019-03-21T20:42:48.594Z,58.13
2019-03-21T20:45:19.027Z,64.30
2019-03-21T20:47:49.041Z,57.00
2019-03-21T20:50:18.044Z,62.30
2019-03-21T20:52:46.765Z,60.43
2019-03-21T20:55:15.821Z,62.37
2019-03-21T20:57:44.540Z,61.00
2019-03-21T21:00:21.425Z,50.40
2019-03-21T21:02:50.858Z,50.17
2019-03-21T21:05:19.615Z,61.47
2019-03-21T21:07:48.402Z,59.37
2019-03-21T21:10:17.082Z,58.90
2019-03-21T21:12:45.726Z,60.37
2019-03-21T21:15:15.852Z,68.87
2019-03-21T21:17:46.003Z,53.93
2019-03-21T21:20:16.782Z,63.73
2019-03-21T21:22:45.403Z,56.00
2019-03-21T21:25:14.560Z,50.27
2019-03-21T21:27:49.388Z,58.80
2019-03-21T21:30:18.045Z,61.37
2019-03-21T21:32:46.724Z,63.33
2019-03-21T21:35:15.454Z,61.20
2019-03-21T21:37:45.385Z,52.07
2019-03-21T21:40:16.805Z,58.03
2019-03-21T21:42:45.578Z,52.10
2019-03-21T21:45:24.506Z,70.40
2019-03-21T21:47:53.085Z,56.20
2019-03-21T21:50:21.659Z,55.67
2019-03-21T21:52:50.242Z,54.60
2019-03-21T21:55:19.033Z,53.50
2019-03-21T21:57:47.652Z,60.43
2019-03-21T22:00:22.918Z,60.20
2019-03-21T22:02:51.926Z,54.50
2019-03-21T22:05:21.617Z,52.97
2019-03-21T22:07:50.246Z,52.60
2019-03-21T22:10:18.892Z,52.47
2019-03-21T22:12:47.475Z,89.27
2019-03-21T22:15:16.920Z,56.80
2019-03-21T22:17:45.712Z,53.00
2019-03-21T22:20:16.210Z,44.30
2019-03-21T22:22:45.083Z,54.53
2019-03-21T22:25:14.893Z,47.03
2019-03-21T22:27:44.144Z,53.93
2019-03-21T22:30:17.649Z,46.10
2019-03-21T22:32:46.424Z,58.80
2019-03-21T22:35:15.038Z,57.40
2019-03-21T22:37:43.843Z,48.33
2019-03-21T22:40:14.753Z,51.50
2019-03-21T22:42:43.347Z,47.93
2019-03-21T22:45:13.735Z,58.00
2019-03-21T22:47:42.348Z,64.77
2019-03-21T22:50:14.946Z,57.97
2019-03-21T22:52:43.314Z,50.83
2019-03-21T22:55:11.978Z,48.50
2019-03-21T22:57:40.470Z,45.50
2019-03-21T23:00:12.311Z,46.60
2019-03-21T23:02:40.866Z,57.50
2019-03-21T23:05:09.748Z,60.80
2019-03-21T23:07:38.311Z,57.93
2019-03-21T23:10:07.838Z,56.07
2019-03-21T23:12:36.303Z,52.77
2019-03-21T23:15:08.239Z,53.37
2019-03-21T23:17:38.516Z,54.47
2019-03-21T23:20:09.418Z,59.03
2019-03-21T23:22:38.006Z,54.90
2019-03-21T23:25:08.042Z,54.00
2019-03-21T23:27:36.517Z,50.60
2019-03-21T23:30:18.334Z,51.17
2019-03-21T23:32:47.004Z,54.80
2019-03-21T23:35:16.195Z,52.50
2019-03-21T23:37:44.857Z,57.57
2019-03-21T23:40:14.743Z,54.87
2019-03-21T23:42:43.638Z,57.23
2019-03-21T23:45:13.549Z,53.33
2019-03-21T23:47:42.247Z,50.63
2019-03-21T23:50:12.633Z,43.30
2019-03-21T23:52:41.214Z,27.33
2019-03-21T23:55:10.137Z,52.40
2019-03-21T23:57:38.692Z,39.70
